createdAt,value
2023-05-01T00:00:21.998Z,10.84
2023-05-01T00:02:50.317Z,10.90
2023-05-01T00:05:19.077Z,10.88
2023-05-01T00:07:47.249Z,10.82
2023-05-01T00:10:15.706Z,10.78
2023-05-01T00:12:43.853Z,10.68
2023-05-01T00:15:12.640Z,10.59
2023-05-01T00:17:42.149Z,10.45
2023-05-01T00:20:11.322Z,10.55
2023-05-01T00:22:39.448Z,10.49
2023-05-01T00:25:08.429Z,10.14
2023-05-01T00:27:36.699Z,10.38
2023-05-01T00:30:05.532Z,10.33
2023-05-01T00:32:34.572Z,10.10
2023-05-01T00:35:04.134Z,10.05
2023-05-01T00:37:32.440Z,10.24
2023-05-01T00:40:01.963Z,10.27
2023-05-01T00:42:35.409Z,10.29
2023-05-01T00:45:04.191Z,10.26
2023-05-01T00:47:32.759Z,10.28
2023-05-01T00:50:01.914Z,10.30
2023-05-01T00:52:32.651Z,10.29
2023-05-01T00:55:01.270Z,10.27
2023-05-01T00:57:29.497Z,10.35
2023-05-01T00:59:58.248Z,10.28
2023-05-01T01:02:27.501Z,10.29
2023-05-01T01:04:57.449Z,9.99
2023-05-01T01:07:36.051Z,10.26
2023-05-01T01:10:18.530Z,10.18
2023-05-01T01:12:55.503Z,9.98
2023-05-01T01:15:39.508Z,9.83
2023-05-01T01:18:13.947Z,9.73
2023-05-01T01:20:47.205Z,9.63
2023-05-01T01:23:34.582Z,9.63
2023-05-01T01:26:34.646Z,9.56
2023-05-01T01:29:25.909Z,9.38
2023-05-01T01:32:05.732Z,9.45
2023-05-01T01:34:42.157Z,9.47
2023-05-01T01:37:18.250Z,9.46
2023-05-01T01:39:54.751Z,9.37
2023-05-01T01:42:28.099Z,9.40
2023-05-01T01:45:01.139Z,9.45
2023-05-01T01:47:33.719Z,9.48
2023-05-01T01:50:09.860Z,9.58
2023-05-01T01:52:40.805Z,8.85
2023-05-01T01:55:12.494Z,9.60
2023-05-01T01:57:44.162Z,9.55
2023-05-01T02:00:16.607Z,9.50
2023-05-01T02:02:46.562Z,9.52
2023-05-01T02:05:18.866Z,9.45
2023-05-01T02:07:51.008Z,9.49
2023-05-01T02:10:20.511Z,9.39
2023-05-01T02:12:50.532Z,9.58
2023-05-01T02:15:20.440Z,9.59
2023-05-01T02:17:50.397Z,9.46
2023-05-01T02:20:22.370Z,9.39
2023-05-01T02:22:53.592Z,9.49
2023-05-01T02:25:22.362Z,9.47
2023-05-01T02:27:57.111Z,9.44
2023-05-01T02:30:25.815Z,8.91
2023-05-01T02:32:54.189Z,9.36
2023-05-01T02:35:24.560Z,9.24
2023-05-01T02:37:53.323Z,9.26
2023-05-01T02:40:23.442Z,9.20
2023-05-01T02:42:54.225Z,8.96
2023-05-01T02:45:26.109Z,9.30
2023-05-01T02:47:57.865Z,9.39
2023-05-01T02:50:29.699Z,9.37
2023-05-01T02:52:58.094Z,9.21
2023-05-01T02:55:26.635Z,9.19
2023-05-01T02:57:55.199Z,9.09
2023-05-01T03:00:23.655Z,9.11
2023-05-01T03:02:52.025Z,9.00
2023-05-01T03:05:20.049Z,8.92
2023-05-01T03:07:51.539Z,8.79
2023-05-01T03:10:21.528Z,8.44
2023-05-01T03:12:49.513Z,8.69
2023-05-01T03:15:18.773Z,8.64
2023-05-01T03:17:46.956Z,8.61
2023-05-01T03:20:16.394Z,8.59
2023-05-01T03:22:44.465Z,8.44
2023-05-01T03:25:14.176Z,8.51
2023-05-01T03:27:42.316Z,8.32
2023-05-01T03:30:11.530Z,8.30
2023-05-01T03:32:40.152Z,8.06
2023-05-01T03:35:09.483Z,7.96
2023-05-01T03:37:37.834Z,7.79
2023-05-01T03:40:07.185Z,8.16
2023-05-01T03:42:36.501Z,7.74
2023-05-01T03:45:05.029Z,8.05
2023-05-01T03:47:33.175Z,8.17
2023-05-01T03:50:02.114Z,8.09
2023-05-01T03:52:30.258Z,8.13
2023-05-01T03:55:01.373Z,8.21
2023-05-01T03:57:29.605Z,8.33
2023-05-01T03:59:59.630Z,8.38
2023-05-01T04:02:27.837Z,8.56
2023-05-01T04:04:56.250Z,8.66
2023-05-01T04:07:24.244Z,8.79
2023-05-01T04:09:52.574Z,8.82
2023-05-01T04:12:20.648Z,8.88
2023-05-01T04:14:48.995Z,8.95
2023-05-01T04:17:21.230Z,9.21
2023-05-01T04:19:50.658Z,9.32
2023-05-01T04:22:19.157Z,9.48
2023-05-01T04:24:47.132Z,9.58
2023-05-01T04:27:15.256Z,9.43
2023-05-01T04:29:44.352Z,9.46
2023-05-01T04:32:12.642Z,10.02
2023-05-01T04:34:42.424Z,10.03
2023-05-01T04:37:11.559Z,10.36
2023-05-01T04:39:40.564Z,10.41
2023-05-01T04:42:09.118Z,10.46
2023-05-01T04:44:37.582Z,10.46
2023-05-01T04:47:06.119Z,10.52
2023-05-01T04:49:34.696Z,10.77
2023-05-01T04:52:04.453Z,10.87
2023-05-01T04:54:32.587Z,11.03
2023-05-01T04:57:00.596Z,11.20
2023-05-01T04:59:30.189Z,11.23
2023-05-01T05:01:58.278Z,11.30
2023-05-01T05:04:26.621Z,11.45
2023-05-01T05:06:55.543Z,11.42
2023-05-01T05:09:26.799Z,11.30
2023-05-01T05:11:55.079Z,11.17
2023-05-01T05:14:24.763Z,11.13
2023-05-01T05:16:55.664Z,11.35
2023-05-01T05:19:24.014Z,11.62
2023-05-01T05:21:52.077Z,11.90
2023-05-01T05:24:20.191Z,11.90
2023-05-01T05:26:49.705Z,11.93
2023-05-01T05:29:18.204Z,12.28
2023-05-01T05:31:48.671Z,12.53
2023-05-01T05:34:17.523Z,12.83
2023-05-01T05:36:46.044Z,13.30
2023-05-01T05:39:14.475Z,13.49
2023-05-01T05:41:42.460Z,13.65
2023-05-01T05:44:12.173Z,13.90
2023-05-01T05:46:43.978Z,14.43
2023-05-01T05:49:12.012Z,14.81
2023-05-01T05:51:40.005Z,15.17
2023-05-01T05:54:08.150Z,15.19
2023-05-01T05:56:36.108Z,14.64
2023-05-01T05:59:06.579Z,14.64
2023-05-01T06:01:38.060Z,14.96
2023-05-01T06:04:06.558Z,15.31
2023-05-01T06:06:34.765Z,15.31
2023-05-01T06:09:03.294Z,15.61
2023-05-01T06:11:31.361Z,16.02
2023-05-01T06:14:00.575Z,16.15
2023-05-01T06:16:28.969Z,16.62
2023-05-01T06:18:59.650Z,16.54
2023-05-01T06:21:27.839Z,16.15
2023-05-01T06:23:56.174Z,15.79
2023-05-01T06:26:24.562Z,15.77
2023-05-01T06:28:55.713Z,15.44
2023-05-01T06:31:23.731Z,15.17
2023-05-01T06:33:51.887Z,15.45
2023-05-01T06:36:23.028Z,15.73
2023-05-01T06:38:50.955Z,15.98
2023-05-01T06:41:19.509Z,15.78
2023-05-01T06:43:49.255Z,15.82
2023-05-01T06:46:17.238Z,16.15
2023-05-01T06:48:45.424Z,16.71
2023-05-01T06:51:14.979Z,16.94
2023-05-01T06:53:45.601Z,16.73
2023-05-01T06:56:13.647Z,17.52
2023-05-01T06:58:41.889Z,17.58
2023-05-01T07:01:10.660Z,17.25
2023-05-01T07:03:38.909Z,16.83
2023-05-01T07:06:07.445Z,17.01
2023-05-01T07:08:35.694Z,16.63
2023-05-01T07:11:05.148Z,16.73
2023-05-01T07:13:33.466Z,16.71
2023-05-01T07:16:01.921Z,16.71
2023-05-01T07:18:30.188Z,16.93
2023-05-01T07:20:58.710Z,17.13
2023-05-01T07:23:27.190Z,17.20
2023-05-01T07:25:55.856Z,17.07
2023-05-01T07:28:25.931Z,17.22
2023-05-01T07:30:54.433Z,17.03
2023-05-01T07:33:23.211Z,17.73
2023-05-01T07:35:51.449Z,18.18
2023-05-01T07:38:20.603Z,18.17
2023-05-01T07:40:49.023Z,18.25
2023-05-01T07:43:16.903Z,18.32
2023-05-01T07:45:57.408Z,18.16
2023-05-01T07:48:27.863Z,17.82
2023-05-01T07:50:56.656Z,18.27
2023-05-01T07:53:25.082Z,18.20
2023-05-01T07:55:53.084Z,17.93
2023-05-01T07:58:21.464Z,17.66
2023-05-01T08:00:51.504Z,17.69
2023-05-01T08:03:19.864Z,17.68
2023-05-01T08:05:47.995Z,17.83
2023-05-01T08:08:20.798Z,17.72
2023-05-01T08:10:48.918Z,17.42
2023-05-01T08:13:19.983Z,17.32
2023-05-01T08:15:49.112Z,17.35
2023-05-01T08:18:21.624Z,17.30
2023-05-01T08:20:50.398Z,17.27
2023-05-01T08:23:18.905Z,17.23
2023-05-01T08:25:51.073Z,17.32
2023-05-01T08:28:21.598Z,17.21
2023-05-01T08:30:50.694Z,17.65
2023-05-01T08:33:20.560Z,17.45
2023-05-01T08:35:49.723Z,17.36
2023-05-01T08:38:17.552Z,17.55
2023-05-01T08:40:52.987Z,17.77
2023-05-01T08:43:24.560Z,17.74
2023-05-01T08:45:56.115Z,17.68
2023-05-01T08:48:27.093Z,17.73
2023-05-01T08:50:58.760Z,17.78
2023-05-01T08:53:27.862Z,17.80
2023-05-01T08:55:57.629Z,17.62
2023-05-01T08:58:27.384Z,18.10
2023-05-01T09:00:57.560Z,18.21
2023-05-01T09:03:28.986Z,18.04
2023-05-01T09:05:57.839Z,18.25
2023-05-01T09:08:25.861Z,18.54
2023-05-01T09:10:58.305Z,18.74
2023-05-01T09:13:27.384Z,19.35
2023-05-01T09:15:55.730Z,19.61
2023-05-01T09:18:23.830Z,19.59
2023-05-01T09:20:53.734Z,20.09
2023-05-01T09:23:22.107Z,20.24
2023-05-01T09:25:51.990Z,20.35
2023-05-01T09:28:20.075Z,20.44
2023-05-01T09:30:48.618Z,20.47
2023-05-01T09:33:18.074Z,20.39
2023-05-01T09:35:55.572Z,19.84
2023-05-01T09:38:25.632Z,20.45
2023-05-01T09:40:57.330Z,20.42
2023-05-01T09:43:27.825Z,20.38
2023-05-01T09:46:05.304Z,20.49
2023-05-01T09:48:35.790Z,20.28
2023-05-01T09:51:21.703Z,20.18
2023-05-01T09:53:50.615Z,19.85
2023-05-01T09:56:19.780Z,20.20
2023-05-01T09:58:48.323Z,20.11
2023-05-01T10:01:16.701Z,19.94
2023-05-01T10:03:46.729Z,19.80
2023-05-01T10:06:29.739Z,19.71
2023-05-01T10:08:57.993Z,20.21
2023-05-01T10:11:27.305Z,20.31
2023-05-01T10:14:13.436Z,20.37
2023-05-01T10:16:41.527Z,20.24
2023-05-01T10:19:11.261Z,20.30
2023-05-01T10:21:41.002Z,20.35
2023-05-01T10:24:10.282Z,20.42
2023-05-01T10:26:41.218Z,20.58
2023-05-01T10:29:10.923Z,20.55
2023-05-01T10:31:40.723Z,20.57
2023-05-01T10:34:10.832Z,20.62
2023-05-01T10:36:45.292Z,20.42
2023-05-01T10:39:31.485Z,21.43
2023-05-01T10:42:04.944Z,21.39
2023-05-01T10:44:35.175Z,21.20
2023-05-01T10:47:41.637Z,20.99
2023-05-01T10:50:11.510Z,20.26
2023-05-01T10:53:14.645Z,19.97
2023-05-01T10:55:46.484Z,20.09
2023-05-01T10:58:16.505Z,19.95
2023-05-01T11:00:44.517Z,20.91
2023-05-01T11:03:42.904Z,20.70
2023-05-01T11:06:11.076Z,20.70
2023-05-01T11:08:40.438Z,20.85
2023-05-01T11:11:45.353Z,21.04
2023-05-01T11:14:14.970Z,21.07
2023-05-01T11:16:44.246Z,21.13
2023-05-01T11:19:13.703Z,21.04
2023-05-01T11:21:42.284Z,21.07
2023-05-01T11:24:11.594Z,21.09
2023-05-01T11:26:42.159Z,20.79
2023-05-01T11:29:12.774Z,21.89
2023-05-01T11:31:43.028Z,22.47
2023-05-01T11:34:13.141Z,22.15
2023-05-01T11:36:51.495Z,21.94
2023-05-01T11:39:23.016Z,21.50
2023-05-01T11:41:51.014Z,21.63
2023-05-01T11:44:20.046Z,21.52
2023-05-01T11:46:58.133Z,21.51
2023-05-01T11:49:28.655Z,21.56
2023-05-01T11:52:00.810Z,21.98
2023-05-01T11:54:29.744Z,22.14
2023-05-01T11:57:02.293Z,21.58
2023-05-01T11:59:30.773Z,22.08
2023-05-01T12:02:00.163Z,22.33
2023-05-01T12:04:32.282Z,22.55
2023-05-01T12:07:01.026Z,22.59
2023-05-01T12:09:30.351Z,22.73
2023-05-01T12:12:01.349Z,22.51
2023-05-01T12:14:29.624Z,22.26
2023-05-01T12:16:59.271Z,22.44
2023-05-01T12:19:27.262Z,22.33
2023-05-01T12:22:08.225Z,22.07
2023-05-01T12:24:36.601Z,21.16
2023-05-01T12:27:07.512Z,20.76
2023-05-01T12:29:42.922Z,20.78
2023-05-01T12:32:12.876Z,20.74
2023-05-01T12:34:43.444Z,20.60
2023-05-01T12:37:12.074Z,20.62
2023-05-01T12:39:42.654Z,20.40
2023-05-01T12:42:15.754Z,20.34
2023-05-01T12:44:45.385Z,20.77
2023-05-01T12:47:14.998Z,21.27
2023-05-01T12:49:43.496Z,21.22
2023-05-01T12:52:11.906Z,20.98
2023-05-01T12:54:41.705Z,20.18
2023-05-01T12:57:11.878Z,20.09
2023-05-01T12:59:41.664Z,20.42
2023-05-01T13:02:12.773Z,20.49
2023-05-01T13:04:44.312Z,20.97
2023-05-01T13:07:13.058Z,20.54
2023-05-01T13:09:41.295Z,20.19
2023-05-01T13:12:10.242Z,20.31
2023-05-01T13:14:40.532Z,20.05
2023-05-01T13:17:09.631Z,20.33
2023-05-01T13:19:38.669Z,20.50
2023-05-01T13:22:08.715Z,20.69
2023-05-01T13:24:38.241Z,20.35
2023-05-01T13:27:06.690Z,20.39
2023-05-01T13:29:35.320Z,20.43
2023-05-01T13:32:05.866Z,20.15
2023-05-01T13:34:35.328Z,20.33
2023-05-01T13:37:04.586Z,19.95
2023-05-01T13:39:34.310Z,20.25
2023-05-01T13:42:06.798Z,20.05
2023-05-01T13:44:43.592Z,20.28
2023-05-01T13:47:16.966Z,19.83
2023-05-01T13:49:45.494Z,19.94
2023-05-01T13:52:19.229Z,20.32
2023-05-01T13:54:49.949Z,20.22
2023-05-01T13:57:19.545Z,20.64
2023-05-01T13:59:49.403Z,20.51
2023-05-01T14:02:22.974Z,20.28
2023-05-01T14:04:51.688Z,20.10
2023-05-01T14:07:22.263Z,20.04
2023-05-01T14:09:56.297Z,19.96
2023-05-01T14:12:28.016Z,19.38
2023-05-01T14:14:56.588Z,19.65
2023-05-01T14:17:31.639Z,19.75
2023-05-01T14:19:59.953Z,19.68
2023-05-01T14:22:31.698Z,20.05
2023-05-01T14:25:01.792Z,20.03
2023-05-01T14:27:30.177Z,20.03
2023-05-01T14:29:59.772Z,20.08
2023-05-01T14:32:34.568Z,19.98
2023-05-01T14:35:03.916Z,19.88
2023-05-01T14:37:33.762Z,19.85
2023-05-01T14:40:04.776Z,19.87
2023-05-01T14:42:32.927Z,19.82
2023-05-01T14:45:01.140Z,19.70
2023-05-01T14:47:29.544Z,19.93
2023-05-01T14:49:57.564Z,19.86
2023-05-01T14:52:25.792Z,19.92
2023-05-01T14:54:54.401Z,19.87
2023-05-01T14:57:23.752Z,20.14
2023-05-01T14:59:51.759Z,19.92
2023-05-01T15:02:20.278Z,20.10
2023-05-01T15:04:48.485Z,20.11
2023-05-01T15:07:16.815Z,20.08
2023-05-01T15:09:46.391Z,20.12
2023-05-01T15:12:14.667Z,20.09
2023-05-01T15:14:44.337Z,20.04
2023-05-01T15:17:13.592Z,19.99
2023-05-01T15:19:41.548Z,19.90
2023-05-01T15:22:09.541Z,20.12
2023-05-01T15:24:40.099Z,20.13
2023-05-01T15:27:08.468Z,19.99
2023-05-01T15:29:37.673Z,20.00
2023-05-01T15:32:12.454Z,19.85
2023-05-01T15:34:41.415Z,19.96
2023-05-01T15:37:09.659Z,20.18
2023-05-01T15:39:38.321Z,19.94
2023-05-01T15:42:06.388Z,19.90
2023-05-01T15:44:34.884Z,19.70
2023-05-01T15:47:02.854Z,19.15
2023-05-01T15:49:32.165Z,19.60
2023-05-01T15:52:02.253Z,19.98
2023-05-01T15:54:30.572Z,20.35
2023-05-01T15:56:58.619Z,19.87
2023-05-01T15:59:28.109Z,19.92
2023-05-01T16:01:56.326Z,19.88
2023-05-01T16:04:24.628Z,19.68
2023-05-01T16:06:54.086Z,19.69
2023-05-01T16:09:26.975Z,19.63
2023-05-01T16:11:55.365Z,19.35
2023-05-01T16:14:23.406Z,19.56
2023-05-01T16:16:51.414Z,19.49
2023-05-01T16:19:19.604Z,19.38
2023-05-01T16:21:47.552Z,19.25
2023-05-01T16:24:16.840Z,19.21
2023-05-01T16:26:45.762Z,19.25
2023-05-01T16:29:15.241Z,19.26
2023-05-01T16:31:47.466Z,18.76
2023-05-01T16:34:18.321Z,18.62
2023-05-01T16:36:47.748Z,19.02
2023-05-01T16:39:19.418Z,18.94
2023-05-01T16:41:49.463Z,18.91
2023-05-01T16:44:18.122Z,19.01
2023-05-01T16:46:52.694Z,19.05
2023-05-01T16:49:21.875Z,18.95
2023-05-01T16:51:50.362Z,18.89
2023-05-01T16:54:21.259Z,18.90
2023-05-01T16:56:50.634Z,19.02
2023-05-01T16:59:18.823Z,19.16
2023-05-01T17:01:46.909Z,19.36
2023-05-01T17:04:15.456Z,19.39
2023-05-01T17:06:43.654Z,19.42
2023-05-01T17:09:11.973Z,19.31
2023-05-01T17:11:41.573Z,19.41
2023-05-01T17:14:10.051Z,19.31
2023-05-01T17:16:38.138Z,19.02
2023-05-01T17:19:09.007Z,18.97
2023-05-01T17:21:38.570Z,19.07
2023-05-01T17:24:06.851Z,18.93
2023-05-01T17:26:34.822Z,18.62
2023-05-01T17:29:04.397Z,18.66
2023-05-01T17:31:32.923Z,18.73
2023-05-01T17:34:01.366Z,18.73
2023-05-01T17:36:29.720Z,18.71
2023-05-01T17:39:00.153Z,18.61
2023-05-01T17:41:28.953Z,18.51
2023-05-01T17:43:57.344Z,18.55
2023-05-01T17:46:27.175Z,18.45
2023-05-01T17:48:56.977Z,18.45
2023-05-01T17:51:26.120Z,18.09
2023-05-01T17:53:54.150Z,18.53
2023-05-01T17:56:22.947Z,18.52
2023-05-01T17:58:51.109Z,18.62
2023-05-01T18:01:19.484Z,18.62
2023-05-01T18:03:50.378Z,18.46
2023-05-01T18:06:19.854Z,18.53
2023-05-01T18:08:49.376Z,18.47
2023-05-01T18:11:19.779Z,18.33
2023-05-01T18:13:48.647Z,18.25
2023-05-01T18:16:17.707Z,18.38
2023-05-01T18:18:45.900Z,18.36
2023-05-01T18:21:15.891Z,18.13
2023-05-01T18:23:48.479Z,17.89
2023-05-01T18:26:17.178Z,17.79
2023-05-01T18:28:45.294Z,17.57
2023-05-01T18:31:14.492Z,17.45
2023-05-01T18:33:42.537Z,17.36
2023-05-01T18:36:10.996Z,17.27
2023-05-01T18:38:40.508Z,17.01
2023-05-01T18:41:08.488Z,16.69
2023-05-01T18:43:36.633Z,16.54
2023-05-01T18:46:04.641Z,16.50
2023-05-01T18:48:32.605Z,16.43
2023-05-01T18:51:08.342Z,16.06
2023-05-01T18:53:36.788Z,15.92
2023-05-01T18:56:09.719Z,15.81
2023-05-01T18:58:40.022Z,15.45
2023-05-01T19:01:08.203Z,15.48
2023-05-01T19:03:36.233Z,15.29
2023-05-01T19:06:04.389Z,15.11
2023-05-01T19:08:32.819Z,14.66
2023-05-01T19:11:00.912Z,14.62
2023-05-01T19:13:30.844Z,14.53
2023-05-01T19:15:59.172Z,14.38
2023-05-01T19:18:27.860Z,14.16
2023-05-01T19:20:56.351Z,14.48
2023-05-01T19:23:30.800Z,14.40
2023-05-01T19:25:58.819Z,14.27
2023-05-01T19:28:27.068Z,14.47
2023-05-01T19:30:56.719Z,14.11
2023-05-01T19:33:24.737Z,14.42
2023-05-01T19:35:52.871Z,14.37
2023-05-01T19:38:20.884Z,14.50
2023-05-01T19:40:48.930Z,14.34
2023-05-01T19:43:17.562Z,14.16
2023-05-01T19:45:45.619Z,14.17
2023-05-01T19:48:15.437Z,14.08
2023-05-01T19:50:51.109Z,14.12
2023-05-01T19:53:19.728Z,14.07
2023-05-01T19:55:48.348Z,13.87
2023-05-01T19:58:16.410Z,13.97
2023-05-01T20:00:44.398Z,14.07
2023-05-01T20:03:13.302Z,13.89
2023-05-01T20:05:43.231Z,13.99
2023-05-01T20:08:11.213Z,13.93
2023-05-01T20:10:39.563Z,13.87
2023-05-01T20:13:10.936Z,13.80
2023-05-01T20:15:39.850Z,13.71
2023-05-01T20:18:08.509Z,13.73
2023-05-01T20:20:37.247Z,13.20
2023-05-01T20:23:13.709Z,13.60
2023-05-01T20:25:42.504Z,13.54
2023-05-01T20:28:12.946Z,13.51
2023-05-01T20:30:43.735Z,13.39
2023-05-01T20:33:12.155Z,12.85
2023-05-01T20:35:40.348Z,13.42
2023-05-01T20:38:08.716Z,13.35
2023-05-01T20:40:40.339Z,13.05
2023-05-01T20:43:09.060Z,13.25
2023-05-01T20:45:37.715Z,13.15
2023-05-01T20:48:06.366Z,13.16
2023-05-01T20:50:35.572Z,13.10
2023-05-01T20:53:04.219Z,12.99
2023-05-01T20:55:32.824Z,12.95
2023-05-01T20:58:02.792Z,12.85
2023-05-01T21:00:31.449Z,12.79
2023-05-01T21:03:00.680Z,12.85
2023-05-01T21:05:29.119Z,12.53
2023-05-01T21:07:59.314Z,12.93
2023-05-01T21:10:27.337Z,12.98
2023-05-01T21:12:56.443Z,12.97
2023-05-01T21:15:27.706Z,12.85
2023-05-01T21:17:55.865Z,12.85
2023-05-01T21:20:32.105Z,12.87
2023-05-01T21:23:03.663Z,12.78
2023-05-01T21:25:32.703Z,12.75
2023-05-01T21:28:03.397Z,12.61
2023-05-01T21:30:34.857Z,12.55
2023-05-01T21:33:05.721Z,12.48
2023-05-01T21:35:34.114Z,12.45
2023-05-01T21:38:02.489Z,12.14
2023-05-01T21:40:30.701Z,12.39
2023-05-01T21:42:58.732Z,12.44
2023-05-01T21:45:27.903Z,12.42
2023-05-01T21:47:57.878Z,12.40
2023-05-01T21:50:26.473Z,12.50
2023-05-01T21:52:54.941Z,12.60
2023-05-01T21:55:27.833Z,12.24
2023-05-01T21:57:56.183Z,12.80
2023-05-01T22:00:24.948Z,12.74
2023-05-01T22:02:53.632Z,12.79
2023-05-01T22:05:24.755Z,12.43
2023-05-01T22:07:54.389Z,12.73
2023-05-01T22:10:22.590Z,11.78
2023-05-01T22:12:50.963Z,12.61
2023-05-01T22:15:19.344Z,12.58
2023-05-01T22:17:47.959Z,12.58
2023-05-01T22:20:16.335Z,12.54
2023-05-01T22:22:47.359Z,12.57
2023-05-01T22:25:17.127Z,12.48
2023-05-01T22:27:46.848Z,12.39
2023-05-01T22:30:15.410Z,12.44
2023-05-01T22:32:44.162Z,12.54
2023-05-01T22:35:12.426Z,12.52
2023-05-01T22:37:40.643Z,12.52
2023-05-01T22:40:14.761Z,12.36
2023-05-01T22:42:42.661Z,12.49
2023-05-01T22:45:11.636Z,12.21
2023-05-01T22:47:40.214Z,12.07
2023-05-01T22:50:09.787Z,12.40
2023-05-01T22:52:38.166Z,12.27
2023-05-01T22:55:07.358Z,12.18
2023-05-01T22:57:36.866Z,12.11
2023-05-01T23:00:07.055Z,12.03
2023-05-01T23:02:35.542Z,11.93
2023-05-01T23:05:04.044Z,12.00
2023-05-01T23:07:32.515Z,11.71
2023-05-01T23:10:02.410Z,11.93
2023-05-01T23:12:30.999Z,11.81
2023-05-01T23:15:01.124Z,11.84
2023-05-01T23:17:36.254Z,11.82
2023-05-01T23:20:08.526Z,11.70
2023-05-01T23:22:38.446Z,11.51
2023-05-01T23:25:08.538Z,11.79
2023-05-01T23:27:38.747Z,11.82
2023-05-01T23:30:11.669Z,11.84
2023-05-01T23:32:41.877Z,11.74
2023-05-01T23:35:14.648Z,11.80
2023-05-01T23:37:44.192Z,11.83
2023-05-01T23:40:12.756Z,10.97
2023-05-01T23:42:41.696Z,11.82
2023-05-01T23:45:12.139Z,11.73
2023-05-01T23:47:40.986Z,11.65
2023-05-01T23:50:09.966Z,11.78
2023-05-01T23:52:38.287Z,11.78
2023-05-01T23:55:06.820Z,11.64
2023-05-01T23:57:34.930Z,11.71
